City Of Cleveland — WDC2358 — position and weather

sailwx.info

Track history (hours):
 
Tides and Currents Weather Stations Pressure Air Temp Water Temp Dewpoint Dewpoint Depression Visibility Wind Speed Wind Dir Waves Ship Positions

City Of Cleveland

Owner: JANTRAN, INC., ROSEDALE, MS. More information available from US FCC via Universal Licensing System and Coast Guard Vessel Documentation Center.

Last reported at 2016-May-29 12:09 UTC. Time now 2016-May-29 19:19 UTC.
Position N 31°60' W 091°06'.

Length 42 m; draft 12.5 m.

Type: Towing. MMSI: 366991810.

Date/timePositionNaut miles runAvg speedWind from/ knotsBaromVisibWave heightAir tempDewpointWater temp
2016-May-29 12:09N 31°60' W 091°06'5 8.1
2016-May-29 11:33N 32°04' W 091°04'3 3.5
2016-May-29 10:33N 32°08' W 091°04'7 6.7
2016-May-29 09:33N 32°13' W 090°59'8 8.1
2016-May-29 08:33N 32°20' W 090°54'6 6.2
2016-May-29 07:33N 32°24' W 090°60'8 8.2
2016-May-29 06:33N 32°29' W 091°07'8 7.8
2016-May-29 05:33N 32°37' W 091°09'8 7.5
2016-May-29 04:32N 32°43' W 091°03'6 6.6
2016-May-29 03:33N 32°47' W 091°10'  
2016-May-22 22:13N 32°37' W 091°09'3 2.5
2016-May-22 21:04N 32°35' W 091°07'2 3.4
2016-May-22 20:34N 32°33' W 091°06'3 3.0
2016-May-22 19:24N 32°30' W 091°07'3 3.3
2016-May-22 18:34N 32°28' W 091°06'3 3.4
2016-May-22 17:33N 32°26' W 091°02'3 3.2
2016-May-22 16:34N 32°23' W 090°60'3 2.7
2016-May-22 15:34N 32°21' W 090°58'1 1.2
2016-May-22 14:33N 32°21' W 090°57'3 2.9
2016-May-22 13:34N 32°19' W 090°54'2 1.5
2016-May-22 12:34N 32°18' W 090°55'0 0.0
2016-May-22 11:34N 32°18' W 090°55'2 2.3
2016-May-22 10:34N 32°17' W 090°57'3 2.7
2016-May-22 09:34N 32°14' W 090°59'3 2.6
2016-May-22 08:33N 32°12' W 090°59'3 2.7
2016-May-22 07:34N 32°09' W 091°00'3 2.6
2016-May-22 06:33N 32°07' W 091°02'3 2.5
2016-May-22 05:34N 32°08' W 091°05'2 2.4
2016-May-22 04:32N 32°06' W 091°05'0 0.1
2016-May-22 03:14N 32°05' W 091°05'1 0.5
2016-May-22 02:16N 32°05' W 091°05'2 3.0
2016-May-22 01:34N 32°03' W 091°04'4 3.3
2016-May-22 00:28N 31°60' W 091°06'  
Track history (hours):
 
Tides and Currents Weather Stations Pressure Air Temp Water Temp Dewpoint Dewpoint Depression Visibility Wind Speed Wind Dir Waves Ship Positions

City Of Cleveland

Owner: JANTRAN, INC., ROSEDALE, MS. More information available from US FCC via Universal Licensing System and Coast Guard Vessel Documentation Center.

Last reported at 2016-May-29 12:09 UTC. Time now 2016-May-29 19:19 UTC.
Position N 31°60' W 091°06'.

Length 42 m; draft 12.5 m.

Type: Towing. MMSI: 366991810.

Date/timePositionNaut miles runAvg speedWind from/ knotsBaromVisibWave heightAir tempDewpointWater temp
2016-May-29 12:09N 31°60' W 091°06'5 8.1
2016-May-29 11:33N 32°04' W 091°04'3 3.5
2016-May-29 10:33N 32°08' W 091°04'7 6.7
2016-May-29 09:33N 32°13' W 090°59'8 8.1
2016-May-29 08:33N 32°20' W 090°54'6 6.2
2016-May-29 07:33N 32°24' W 090°60'8 8.2
2016-May-29 06:33N 32°29' W 091°07'8 7.8
2016-May-29 05:33N 32°37' W 091°09'8 7.5
2016-May-29 04:32N 32°43' W 091°03'6 6.6
2016-May-29 03:33N 32°47' W 091°10'  
2016-May-22 22:13N 32°37' W 091°09'3 2.5
2016-May-22 21:04N 32°35' W 091°07'2 3.4
2016-May-22 20:34N 32°33' W 091°06'3 3.0
2016-May-22 19:24N 32°30' W 091°07'3 3.3
2016-May-22 18:34N 32°28' W 091°06'3 3.4
2016-May-22 17:33N 32°26' W 091°02'3 3.2
2016-May-22 16:34N 32°23' W 090°60'3 2.7
2016-May-22 15:34N 32°21' W 090°58'1 1.2
2016-May-22 14:33N 32°21' W 090°57'3 2.9
2016-May-22 13:34N 32°19' W 090°54'2 1.5
2016-May-22 12:34N 32°18' W 090°55'0 0.0
2016-May-22 11:34N 32°18' W 090°55'2 2.3
2016-May-22 10:34N 32°17' W 090°57'3 2.7
2016-May-22 09:34N 32°14' W 090°59'3 2.6
2016-May-22 08:33N 32°12' W 090°59'3 2.7
2016-May-22 07:34N 32°09' W 091°00'3 2.6
2016-May-22 06:33N 32°07' W 091°02'3 2.5
2016-May-22 05:34N 32°08' W 091°05'2 2.4
2016-May-22 04:32N 32°06' W 091°05'0 0.1
2016-May-22 03:14N 32°05' W 091°05'1 0.5
2016-May-22 02:16N 32°05' W 091°05'2 3.0
2016-May-22 01:34N 32°03' W 091°04'4 3.3
2016-May-22 00:28N 31°60' W 091°06'  

Dump ship's entire track history